Terminal Aerodrome Forecast
Issued by NWS

Home | Current Version | Previous Version | Text Only | Print | Product List | Glossary On
Versions: 1 2 3 4 5 6 7 8 9 10 11 12 13 14 15 16 17 18 19 20 21 22
000
FTUS41 KPBZ 212300
TAFAGC
TAF
KAGC 212322Z 2200/2224 32008KT P6SM VCSH BKN015 OVC035
      TEMPO 2203/2206 BKN008 OVC015
     FM220600 32005KT 5SM BR VCSH OVC008
     FM221300 33008KT P6SM BKN015 OVC025
     FM221500 33009KT P6SM BKN025
     FM222100 32008KT P6SM BKN035=

USA.gov is the U.S. government's official web portal to all federal, state and local government web resources and services.